createdAt,value
2018-07-03T00:00:38.285Z,99.99
2018-07-03T00:01:38.269Z,99.99
2018-07-03T00:02:38.258Z,99.99
2018-07-03T00:03:38.234Z,99.99
2018-07-03T00:04:38.228Z,99.99
2018-07-03T00:05:38.195Z,99.99
2018-07-03T00:06:38.193Z,99.99
2018-07-03T00:07:38.168Z,99.99
2018-07-03T00:08:38.141Z,99.99
2018-07-03T00:09:38.150Z,99.99
2018-07-03T00:10:38.105Z,99.99
2018-07-03T00:11:38.109Z,99.99
2018-07-03T00:12:38.076Z,99.99
2018-07-03T00:13:38.053Z,99.99
2018-07-03T00:14:38.066Z,99.99
2018-07-03T00:15:38.024Z,99.99
2018-07-03T00:16:38.002Z,99.99
2018-07-03T00:17:37.983Z,99.99
2018-07-03T00:18:37.963Z,99.99
2018-07-03T00:19:37.951Z,99.99
2018-07-03T00:20:37.925Z,99.99
2018-07-03T00:21:37.916Z,99.99
2018-07-03T00:22:37.893Z,99.99
2018-07-03T00:23:37.890Z,99.99
2018-07-03T00:24:37.858Z,99.99
2018-07-03T00:25:37.869Z,99.99
2018-07-03T00:26:37.823Z,99.99
2018-07-03T00:27:37.810Z,99.99
2018-07-03T00:28:37.787Z,99.99
2018-07-03T00:29:37.781Z,99.99
2018-07-03T00:30:37.752Z,99.99
2018-07-03T00:31:37.732Z,99.99
2018-07-03T00:32:37.739Z,98.99
2018-07-03T00:33:37.708Z,99.99
2018-07-03T00:34:37.682Z,99.75
2018-07-03T00:35:37.670Z,99.18
2018-07-03T00:36:37.654Z,98.80
2018-07-03T00:37:37.634Z,99.27
2018-07-03T00:38:37.611Z,98.70
2018-07-03T00:39:37.598Z,99.56
2018-07-03T00:40:37.579Z,98.90
2018-07-03T00:41:37.557Z,98.51
2018-07-03T00:42:37.544Z,98.51
2018-07-03T00:43:37.524Z,98.03
2018-07-03T00:44:37.521Z,96.32
2018-07-03T00:45:37.485Z,97.56
2018-07-03T00:46:37.477Z,97.27
2018-07-03T00:47:37.455Z,98.03
2018-07-03T00:48:37.434Z,99.18
2018-07-03T00:49:37.418Z,99.99
2018-07-03T00:50:37.411Z,99.99
2018-07-03T00:51:37.383Z,98.56
2018-07-03T00:52:37.389Z,99.13
2018-07-03T00:53:37.347Z,98.08
2018-07-03T00:54:37.325Z,97.51
2018-07-03T00:55:37.314Z,98.03
2018-07-03T00:56:37.303Z,97.37
2018-07-03T00:57:37.313Z,97.56
2018-07-03T00:58:37.282Z,96.98
2018-07-03T00:59:37.246Z,97.99
2018-07-03T01:00:37.225Z,97.89
2018-07-03T01:01:37.213Z,97.99
2018-07-03T01:02:37.192Z,98.65
2018-07-03T01:03:37.180Z,98.46
2018-07-03T01:04:37.151Z,97.37
2018-07-03T01:05:37.148Z,96.13
2018-07-03T01:06:37.116Z,96.13
2018-07-03T01:07:37.107Z,96.03
2018-07-03T01:08:37.091Z,95.17
2018-07-03T01:09:37.065Z,95.17
2018-07-03T01:10:37.055Z,96.80
2018-07-03T01:11:37.030Z,93.08
2018-07-03T01:12:37.007Z,95.27
2018-07-03T01:13:37.007Z,92.88
2018-07-03T01:14:36.981Z,92.83
2018-07-03T01:15:36.956Z,91.98
2018-07-03T01:16:36.936Z,94.07
2018-07-03T01:17:36.927Z,94.51
2018-07-03T01:18:36.908Z,94.12
2018-07-03T01:19:36.911Z,94.70
2018-07-03T01:20:36.896Z,94.98
2018-07-03T01:21:36.851Z,95.46
2018-07-03T01:22:36.834Z,95.37
2018-07-03T01:23:36.815Z,94.89
2018-07-03T01:24:36.825Z,92.03
2018-07-03T01:25:36.787Z,93.55
2018-07-03T01:26:36.768Z,93.55
2018-07-03T01:27:36.761Z,91.88
2018-07-03T01:28:36.725Z,92.88
2018-07-03T01:29:36.714Z,92.65
2018-07-03T01:30:36.701Z,93.65
2018-07-03T01:31:36.691Z,93.74
2018-07-03T01:32:36.666Z,93.55
2018-07-03T01:33:36.647Z,92.98
2018-07-03T01:34:36.628Z,92.88
2018-07-03T01:35:36.621Z,94.60
2018-07-03T01:36:36.589Z,92.98
2018-07-03T01:37:36.573Z,94.41
2018-07-03T01:38:36.571Z,94.03
2018-07-03T01:39:36.535Z,94.79
2018-07-03T01:40:36.532Z,95.37
2018-07-03T01:41:36.518Z,94.89
2018-07-03T01:42:36.481Z,95.56
2018-07-03T01:43:36.474Z,94.12
2018-07-03T01:44:36.452Z,94.60
2018-07-03T01:45:36.433Z,93.74
2018-07-03T01:46:36.411Z,92.88
2018-07-03T01:47:36.404Z,93.55
2018-07-03T01:48:36.386Z,93.08
2018-07-03T01:49:36.374Z,92.98
2018-07-03T01:50:36.360Z,94.03
2018-07-03T01:51:36.327Z,92.98
2018-07-03T01:52:36.311Z,94.41
2018-07-03T01:53:36.301Z,93.74
2018-07-03T01:54:36.275Z,94.32
2018-07-03T01:55:36.253Z,94.98
2018-07-03T01:56:36.243Z,94.70
2018-07-03T01:57:36.224Z,94.60
2018-07-03T01:58:36.208Z,95.56
2018-07-03T01:59:36.195Z,94.22
2018-07-03T02:00:36.166Z,93.98
2018-07-03T02:01:36.159Z,95.79
2018-07-03T02:02:36.128Z,96.08
2018-07-03T02:03:36.131Z,95.61
2018-07-03T02:04:36.115Z,95.12
2018-07-03T02:05:36.095Z,96.08
2018-07-03T02:06:36.059Z,95.79
2018-07-03T02:07:36.059Z,94.89
2018-07-03T02:08:36.020Z,92.32
2018-07-03T02:09:36.018Z,93.55
2018-07-03T02:10:36.010Z,92.50
2018-07-03T02:11:35.981Z,91.64
2018-07-03T02:12:35.957Z,93.46
2018-07-03T02:13:35.940Z,95.84
2018-07-03T02:14:35.922Z,95.17
2018-07-03T02:15:35.910Z,95.65
2018-07-03T02:16:35.883Z,94.65
2018-07-03T02:17:35.882Z,95.79
2018-07-03T02:18:35.853Z,97.22
2018-07-03T02:19:35.850Z,95.89
2018-07-03T02:20:35.815Z,94.65
2018-07-03T02:21:35.798Z,95.51
2018-07-03T02:22:35.792Z,96.27
2018-07-03T02:23:35.763Z,96.65
2018-07-03T02:24:35.780Z,96.08
2018-07-03T02:25:35.719Z,96.46
2018-07-03T02:26:35.704Z,97.32
2018-07-03T02:27:35.685Z,98.46
2018-07-03T02:28:35.669Z,98.36
2018-07-03T02:29:35.657Z,98.27
2018-07-03T02:30:35.628Z,98.41
2018-07-03T02:31:35.635Z,99.94
2018-07-03T02:32:35.606Z,96.94
2018-07-03T02:33:35.577Z,95.70
2018-07-03T02:34:35.561Z,94.98
2018-07-03T02:35:35.558Z,96.70
2018-07-03T02:36:35.525Z,97.89
2018-07-03T02:37:35.510Z,97.89
2018-07-03T02:38:35.491Z,98.18
2018-07-03T02:39:35.485Z,98.08
2018-07-03T02:40:35.468Z,98.94
2018-07-03T02:41:35.439Z,98.70
2018-07-03T02:42:35.423Z,97.80
2018-07-03T02:43:35.407Z,97.22
2018-07-03T02:44:35.391Z,97.41
2018-07-03T02:45:35.363Z,97.41
2018-07-03T02:46:35.369Z,96.94
2018-07-03T02:47:35.330Z,97.13
2018-07-03T02:48:35.333Z,98.56
2018-07-03T02:49:35.295Z,98.75
2018-07-03T02:50:35.275Z,99.51
2018-07-03T02:51:35.257Z,99.08
2018-07-03T02:52:35.245Z,97.99
2018-07-03T02:53:35.224Z,97.61
2018-07-03T02:54:35.203Z,99.18
2018-07-03T02:55:35.192Z,99.99
2018-07-03T02:56:35.164Z,99.99
2018-07-03T02:57:35.151Z,99.99
2018-07-03T02:58:35.146Z,99.99
2018-07-03T02:59:35.115Z,99.99
2018-07-03T03:00:35.114Z,99.99
2018-07-03T03:01:35.086Z,99.99
2018-07-03T03:02:35.057Z,99.99
2018-07-03T03:03:35.038Z,99.99
2018-07-03T03:04:35.026Z,99.99
2018-07-03T03:05:35.003Z,99.99
2018-07-03T03:06:35.015Z,99.99
2018-07-03T03:07:34.968Z,99.99
2018-07-03T03:08:34.965Z,99.99
2018-07-03T03:09:34.945Z,99.99
2018-07-03T03:10:34.917Z,99.99
2018-07-03T03:11:34.915Z,99.99
2018-07-03T03:12:34.864Z,99.99
2018-07-03T03:13:34.856Z,99.99
2018-07-03T03:14:34.849Z,99.99
2018-07-03T03:15:34.828Z,99.99
2018-07-03T03:16:34.812Z,99.99
2018-07-03T03:17:34.791Z,99.99
2018-07-03T03:18:34.788Z,99.99
2018-07-03T03:19:34.771Z,99.99
2018-07-03T03:20:34.723Z,99.99
2018-07-03T03:21:34.713Z,99.99
2018-07-03T03:22:34.743Z,99.99
2018-07-03T03:23:34.676Z,99.99
2018-07-03T03:24:34.653Z,99.99
2018-07-03T03:25:34.644Z,99.99
2018-07-03T03:26:34.619Z,99.99
2018-07-03T03:27:34.605Z,99.99
2018-07-03T03:28:34.583Z,99.99
2018-07-03T03:29:34.563Z,99.99
2018-07-03T03:30:34.544Z,99.99
2018-07-03T03:31:34.538Z,99.99
2018-07-03T03:32:34.512Z,99.99
2018-07-03T03:33:34.488Z,99.99
2018-07-03T03:34:34.504Z,99.99
2018-07-03T03:35:34.458Z,99.99
2018-07-03T03:36:34.436Z,99.99
2018-07-03T03:37:34.423Z,99.99
2018-07-03T03:38:34.398Z,99.99
2018-07-03T03:39:34.384Z,99.99
2018-07-03T03:40:34.363Z,99.99
2018-07-03T03:41:34.340Z,99.99
2018-07-03T03:42:34.352Z,99.99
2018-07-03T03:43:34.312Z,99.99
2018-07-03T03:44:34.279Z,99.99
2018-07-03T03:45:34.293Z,99.99
2018-07-03T03:46:34.238Z,99.99
2018-07-03T03:47:34.219Z,99.99
2018-07-03T03:48:34.209Z,99.99
2018-07-03T03:49:34.191Z,99.99
2018-07-03T03:50:34.168Z,99.99
2018-07-03T03:51:34.152Z,99.99
2018-07-03T03:52:34.137Z,99.99
2018-07-03T03:53:34.108Z,99.99
2018-07-03T03:54:34.102Z,99.99
2018-07-03T03:55:34.072Z,99.99
2018-07-03T03:56:34.079Z,99.99
2018-07-03T03:57:34.031Z,99.99
2018-07-03T03:58:34.019Z,99.99
2018-07-03T03:59:33.996Z,99.99
2018-07-03T04:00:34.007Z,99.99
2018-07-03T04:01:33.989Z,99.99
2018-07-03T04:02:33.961Z,99.99
2018-07-03T04:03:33.926Z,99.99
2018-07-03T04:04:33.929Z,99.99
2018-07-03T04:05:33.895Z,99.99
2018-07-03T04:06:33.877Z,99.99
2018-07-03T04:07:33.863Z,99.99
2018-07-03T04:08:33.831Z,99.99
2018-07-03T04:09:33.813Z,99.99
2018-07-03T04:10:33.787Z,99.99
2018-07-03T04:11:33.774Z,99.99
2018-07-03T04:12:33.755Z,99.99
2018-07-03T04:13:33.739Z,99.99
2018-07-03T04:14:33.726Z,99.99
2018-07-03T04:15:33.695Z,99.99
2018-07-03T04:16:33.695Z,99.99
2018-07-03T04:17:33.664Z,99.99
2018-07-03T04:18:33.653Z,99.99
2018-07-03T04:19:33.631Z,99.99
2018-07-03T04:20:33.605Z,99.99
2018-07-03T04:21:33.586Z,99.99
2018-07-03T04:22:33.564Z,99.99
2018-07-03T04:23:33.576Z,99.99
2018-07-03T04:24:33.538Z,99.99
2018-07-03T04:25:33.522Z,99.99
2018-07-03T04:26:33.498Z,99.99
2018-07-03T04:27:33.471Z,99.99
2018-07-03T04:28:33.459Z,99.99
2018-07-03T04:29:33.438Z,99.99
2018-07-03T04:30:33.418Z,99.99
2018-07-03T04:31:33.393Z,99.99
2018-07-03T04:32:33.378Z,99.99
2018-07-03T04:33:33.365Z,99.99
2018-07-03T04:34:33.336Z,99.99
2018-07-03T04:35:33.326Z,99.99
2018-07-03T04:36:33.345Z,99.99
2018-07-03T04:37:33.287Z,99.99
2018-07-03T04:38:33.277Z,99.99
2018-07-03T04:39:33.302Z,99.99
2018-07-03T04:40:33.232Z,99.99
2018-07-03T04:41:33.236Z,99.99
2018-07-03T04:42:33.194Z,99.99
2018-07-03T04:43:33.184Z,99.99
2018-07-03T04:44:33.152Z,99.99
2018-07-03T04:45:33.142Z,99.99
2018-07-03T04:46:33.117Z,99.99
2018-07-03T04:47:33.098Z,99.99
2018-07-03T04:48:33.081Z,99.99
2018-07-03T04:49:33.072Z,99.99
2018-07-03T04:50:33.041Z,99.99
2018-07-03T04:51:33.030Z,99.99
2018-07-03T04:52:33.011Z,99.99
2018-07-03T04:53:32.986Z,99.99
2018-07-03T04:54:32.976Z,99.99
2018-07-03T04:55:32.958Z,99.99
2018-07-03T04:56:32.931Z,99.99
2018-07-03T04:57:32.912Z,99.99
2018-07-03T04:58:32.906Z,99.99
2018-07-03T04:59:32.883Z,99.99
2018-07-03T05:00:32.857Z,99.99
2018-07-03T05:01:32.844Z,99.99
2018-07-03T05:02:32.826Z,99.99
2018-07-03T05:03:32.813Z,99.99
2018-07-03T05:04:32.787Z,99.99
2018-07-03T05:05:32.780Z,99.99
2018-07-03T05:06:32.768Z,99.99
2018-07-03T05:07:32.731Z,99.99
2018-07-03T05:08:32.733Z,99.99
2018-07-03T05:09:32.708Z,99.99
2018-07-03T05:10:32.707Z,99.99
2018-07-03T05:11:32.658Z,99.99
2018-07-03T05:12:32.643Z,99.99
2018-07-03T05:13:32.628Z,99.99
2018-07-03T05:14:32.611Z,99.99
2018-07-03T05:15:32.591Z,99.99
2018-07-03T05:16:32.582Z,99.99
2018-07-03T05:17:32.588Z,99.99
2018-07-03T05:18:32.543Z,99.99
2018-07-03T05:19:32.527Z,99.99
2018-07-03T05:20:32.513Z,99.99
2018-07-03T05:21:32.490Z,99.99
2018-07-03T05:22:32.471Z,99.99
2018-07-03T05:23:32.468Z,99.99
2018-07-03T05:24:32.476Z,99.99
2018-07-03T05:25:32.430Z,99.99
2018-07-03T05:26:32.429Z,99.99
2018-07-03T05:27:32.401Z,99.99
2018-07-03T05:28:32.375Z,99.80
2018-07-03T05:29:32.363Z,99.99
2018-07-03T05:30:32.348Z,99.99
2018-07-03T05:31:32.442Z,98.80
2018-07-03T05:32:32.309Z,99.99
2018-07-03T05:33:32.286Z,99.48
2018-07-03T05:34:32.279Z,97.80
2018-07-03T05:35:32.254Z,98.95
2018-07-03T05:36:32.241Z,98.47
2018-07-03T05:37:32.236Z,99.33
2018-07-03T05:38:32.213Z,99.81
2018-07-03T05:39:32.196Z,99.99
2018-07-03T05:40:32.175Z,95.46
2018-07-03T05:41:32.155Z,97.47
2018-07-03T05:42:32.155Z,97.18
2018-07-03T05:43:32.126Z,99.62
2018-07-03T05:44:32.114Z,98.95
2018-07-03T05:45:32.099Z,97.23
2018-07-03T05:46:32.082Z,99.05
2018-07-03T05:47:32.072Z,99.99
2018-07-03T05:48:32.047Z,99.72
2018-07-03T05:49:32.041Z,96.32
2018-07-03T05:50:32.030Z,95.61
2018-07-03T05:51:32.005Z,94.50
2018-07-03T05:52:31.990Z,94.79
2018-07-03T05:53:31.979Z,97.66
2018-07-03T05:54:31.959Z,96.89
2018-07-03T05:55:31.946Z,91.39
2018-07-03T05:56:31.983Z,89.76
2018-07-03T05:57:31.909Z,93.98
2018-07-03T05:58:31.891Z,95.98
2018-07-03T05:59:31.887Z,95.79
2018-07-03T06:00:31.866Z,97.66
2018-07-03T06:01:31.856Z,98.14
2018-07-03T06:02:31.836Z,90.95
2018-07-03T06:03:31.830Z,90.00
2018-07-03T06:04:31.808Z,93.44
2018-07-03T06:05:31.798Z,96.51
2018-07-03T06:06:31.783Z,94.54
2018-07-03T06:07:31.775Z,95.12
2018-07-03T06:08:31.775Z,96.08
2018-07-03T06:09:31.771Z,95.89
2018-07-03T06:10:31.724Z,90.90
2018-07-03T06:11:31.715Z,90.81
2018-07-03T06:12:31.699Z,88.41
2018-07-03T06:13:31.680Z,89.27
2018-07-03T06:14:31.699Z,88.17
2018-07-03T06:15:31.658Z,83.94
2018-07-03T06:16:31.642Z,83.08
2018-07-03T06:17:31.636Z,85.48
2018-07-03T06:18:31.619Z,82.51
2018-07-03T06:19:31.597Z,82.26
2018-07-03T06:20:31.623Z,78.13
2018-07-03T06:21:31.581Z,75.35
2018-07-03T06:22:31.562Z,75.92
2018-07-03T06:23:31.569Z,78.65
2018-07-03T06:24:31.540Z,79.80
2018-07-03T06:25:31.552Z,71.55
2018-07-03T06:26:31.530Z,76.73
2018-07-03T06:27:31.503Z,72.54
2018-07-03T06:28:31.488Z,74.27
2018-07-03T06:29:31.485Z,79.75
2018-07-03T06:30:31.480Z,75.62
2018-07-03T06:31:31.449Z,66.42
2018-07-03T06:32:31.433Z,74.30
2018-07-03T06:33:31.426Z,69.31
2018-07-03T06:34:31.414Z,61.91
2018-07-03T06:35:31.407Z,63.38
2018-07-03T06:36:31.382Z,74.73
2018-07-03T06:37:31.404Z,67.90
2018-07-03T06:38:31.370Z,63.48
2018-07-03T06:39:31.352Z,67.90
2018-07-03T06:40:31.330Z,68.09
2018-07-03T06:41:31.334Z,65.01
2018-07-03T06:42:31.309Z,66.46
2018-07-03T06:43:31.303Z,68.67
2018-07-03T06:44:31.289Z,71.84
2018-07-03T06:45:31.267Z,65.20
2018-07-03T06:46:31.270Z,61.74
2018-07-03T06:47:31.249Z,63.79
2018-07-03T06:48:31.241Z,68.60
2018-07-03T06:49:31.229Z,68.60
2018-07-03T06:50:31.213Z,66.39
2018-07-03T06:51:31.216Z,61.00
2018-07-03T06:52:31.207Z,59.75
2018-07-03T06:53:31.188Z,60.84
2018-07-03T06:54:31.165Z,61.90
2018-07-03T06:55:31.165Z,61.07
2018-07-03T06:56:31.145Z,61.45
2018-07-03T06:57:31.130Z,68.77
2018-07-03T06:58:31.139Z,66.94
2018-07-03T06:59:31.109Z,63.47
2018-07-03T07:00:31.103Z,56.54
2018-07-03T07:01:31.087Z,55.67
2018-07-03T07:02:31.081Z,58.20
2018-07-03T07:03:31.071Z,63.79
2018-07-03T07:04:31.058Z,62.73
2018-07-03T07:05:31.068Z,62.73
2018-07-03T07:06:31.051Z,60.52
2018-07-03T07:07:31.025Z,59.07
2018-07-03T07:08:31.082Z,59.07
2018-07-03T07:09:31.069Z,63.02
2018-07-03T07:10:30.995Z,65.33
2018-07-03T07:11:31.009Z,56.66
2018-07-03T07:12:30.972Z,55.89
2018-07-03T07:13:30.979Z,56.49
2018-07-03T07:14:30.947Z,53.22
2018-07-03T07:15:30.937Z,56.59
2018-07-03T07:16:30.921Z,60.58
2018-07-03T07:17:30.911Z,56.72
2018-07-03T07:18:30.919Z,60.96
2018-07-03T07:19:30.904Z,56.91
2018-07-03T07:20:30.894Z,57.97
2018-07-03T07:21:30.876Z,53.73
2018-07-03T07:22:30.867Z,54.60
2018-07-03T07:23:30.860Z,54.14
2018-07-03T07:24:30.856Z,52.47
2018-07-03T07:25:30.835Z,52.50
2018-07-03T07:26:30.820Z,52.98
2018-07-03T07:27:30.817Z,54.43
2018-07-03T07:28:30.894Z,56.39
2018-07-03T07:29:30.792Z,50.76
2018-07-03T07:30:30.781Z,53.11
2018-07-03T07:31:30.783Z,53.91
2018-07-03T07:32:30.769Z,56.63
2018-07-03T07:33:30.760Z,54.03
2018-07-03T07:34:30.754Z,48.64
2018-07-03T07:35:30.737Z,48.95
2018-07-03T07:36:30.750Z,46.53
2018-07-03T07:37:30.735Z,46.92
2018-07-03T07:38:30.721Z,46.19
2018-07-03T07:39:30.702Z,46.60
2018-07-03T07:40:30.699Z,47.20
2018-07-03T07:41:30.686Z,47.02
2018-07-03T07:42:30.679Z,44.51
2018-07-03T07:43:30.670Z,45.89
2018-07-03T07:44:30.673Z,43.37
2018-07-03T07:45:30.660Z,41.14
2018-07-03T07:46:30.663Z,41.22
2018-07-03T07:47:30.645Z,45.02
2018-07-03T07:48:30.646Z,45.61
2018-07-03T07:49:30.632Z,43.95
2018-07-03T07:50:30.632Z,42.61
2018-07-03T07:51:30.626Z,42.52
2018-07-03T07:52:30.621Z,42.23
2018-07-03T07:53:30.620Z,43.22
2018-07-03T07:54:30.606Z,41.20
2018-07-03T07:55:30.603Z,40.81
2018-07-03T07:56:30.664Z,40.13
2018-07-03T07:57:30.593Z,40.69
2018-07-03T07:58:30.584Z,41.18
2018-07-03T07:59:30.577Z,41.84
2018-07-03T08:00:30.570Z,41.94
2018-07-03T08:01:30.568Z,44.09
2018-07-03T08:02:30.564Z,40.39
2018-07-03T08:03:30.558Z,41.36
2018-07-03T08:04:30.558Z,41.74
2018-07-03T08:05:30.553Z,39.59
2018-07-03T08:06:30.545Z,39.78
2018-07-03T08:07:30.547Z,42.52
2018-07-03T08:08:30.540Z,44.09
2018-07-03T08:09:30.537Z,41.45
2018-07-03T08:10:30.529Z,41.92
2018-07-03T08:11:30.526Z,40.95
2018-07-03T08:12:30.510Z,39.70
2018-07-03T08:13:30.507Z,41.86
2018-07-03T08:14:30.513Z,41.96
2018-07-03T08:15:30.497Z,40.79
2018-07-03T08:16:30.497Z,39.62
2018-07-03T08:17:30.491Z,39.41
2018-07-03T08:18:30.481Z,38.44
2018-07-03T08:19:30.487Z,39.82
2018-07-03T08:20:30.473Z,40.97
2018-07-03T08:21:30.474Z,40.58
2018-07-03T08:22:30.475Z,41.18
2018-07-03T08:23:30.462Z,40.23
2018-07-03T08:24:30.455Z,39.45
2018-07-03T08:25:30.449Z,38.57
2018-07-03T08:26:30.475Z,40.64
2018-07-03T08:27:30.439Z,40.85
2018-07-03T08:28:30.443Z,38.98
2018-07-03T08:29:30.436Z,39.20
2018-07-03T08:30:30.437Z,37.82
2018-07-03T08:31:30.430Z,40.27
2018-07-03T08:32:30.414Z,38.11
2018-07-03T08:33:30.415Z,36.44
2018-07-03T08:34:30.409Z,40.73
2018-07-03T08:35:30.412Z,39.76
2018-07-03T08:36:30.401Z,39.78
2018-07-03T08:37:30.395Z,38.01
2018-07-03T08:38:30.392Z,38.40
2018-07-03T08:39:30.398Z,38.01
2018-07-03T08:40:30.384Z,42.53
2018-07-03T08:41:30.376Z,37.85
2018-07-03T08:42:30.370Z,40.80
2018-07-03T08:43:30.368Z,36.04
2018-07-03T08:44:30.378Z,37.10
2018-07-03T08:45:30.369Z,42.76
2018-07-03T08:46:30.363Z,39.82
2018-07-03T08:47:30.366Z,40.11
2018-07-03T08:48:30.387Z,38.75
2018-07-03T08:49:30.353Z,38.95
2018-07-03T08:50:30.343Z,37.66
2018-07-03T08:51:30.340Z,39.80
2018-07-03T08:52:30.333Z,38.13
2018-07-03T08:53:30.337Z,39.70
2018-07-03T08:54:30.331Z,39.70
2018-07-03T08:55:30.321Z,42.04
2018-07-03T08:56:30.321Z,40.31
2018-07-03T08:57:30.314Z,40.89
2018-07-03T08:58:30.308Z,41.57
2018-07-03T08:59:30.308Z,41.40
2018-07-03T09:00:30.308Z,37.89
2018-07-03T09:01:30.298Z,35.75
2018-07-03T09:02:30.295Z,37.00
2018-07-03T09:03:30.285Z,38.46
2018-07-03T09:04:30.282Z,38.23
2018-07-03T09:05:30.279Z,39.51
2018-07-03T09:06:30.266Z,38.15
2018-07-03T09:07:30.276Z,42.18
2018-07-03T09:08:30.272Z,37.89
2018-07-03T09:09:30.270Z,38.87
2018-07-03T09:10:30.259Z,36.90
2018-07-03T09:11:30.304Z,39.34
2018-07-03T09:12:30.257Z,40.13
2018-07-03T09:13:30.259Z,35.53
2018-07-03T09:14:30.241Z,36.43
2018-07-03T09:15:30.244Z,36.72
2018-07-03T09:16:30.240Z,37.12
2018-07-03T09:17:30.234Z,41.01
2018-07-03T09:18:30.234Z,40.42
2018-07-03T09:19:30.224Z,35.93
2018-07-03T09:20:30.221Z,36.10
2018-07-03T09:21:30.224Z,35.71
2018-07-03T09:22:30.218Z,37.85
2018-07-03T09:23:30.236Z,39.53
2018-07-03T09:24:30.208Z,39.34
2018-07-03T09:25:30.205Z,37.85
2018-07-03T09:26:30.209Z,40.00
2018-07-03T09:27:30.196Z,36.88
2018-07-03T09:28:30.189Z,38.95
2018-07-03T09:29:30.180Z,35.55
2018-07-03T09:30:30.206Z,37.89
2018-07-03T09:31:30.182Z,37.60
2018-07-03T09:32:30.170Z,37.71
2018-07-03T09:33:30.179Z,42.49
2018-07-03T09:34:30.160Z,38.20
2018-07-03T09:35:30.167Z,31.01
2018-07-03T09:36:30.157Z,34.83
2018-07-03T09:37:30.148Z,38.53
2018-07-03T09:38:30.151Z,38.34
2018-07-03T09:39:30.186Z,38.14
2018-07-03T09:40:30.154Z,42.24
2018-07-03T09:41:30.171Z,39.90
2018-07-03T09:42:30.166Z,36.88
2018-07-03T09:43:30.125Z,39.33
2018-07-03T09:44:30.117Z,37.96
2018-07-03T09:45:30.124Z,33.04
2018-07-03T09:46:30.114Z,35.18
2018-07-03T09:47:30.111Z,35.26
2018-07-03T09:48:30.114Z,34.68
2018-07-03T09:49:30.108Z,35.53
2018-07-03T09:50:30.109Z,36.22
2018-07-03T09:51:30.104Z,37.19
2018-07-03T09:52:30.085Z,34.27
2018-07-03T09:53:30.088Z,32.11
2018-07-03T09:54:30.095Z,32.29
2018-07-03T09:55:30.083Z,33.06
2018-07-03T09:56:30.086Z,33.54
2018-07-03T09:57:30.108Z,35.41
2018-07-03T09:58:30.073Z,33.65
2018-07-03T09:59:30.072Z,35.60
2018-07-03T10:00:30.060Z,35.60
2018-07-03T10:01:30.060Z,36.00
2018-07-03T10:02:30.072Z,35.53
2018-07-03T10:03:30.060Z,33.77
2018-07-03T10:04:30.048Z,36.98
2018-07-03T10:05:30.045Z,41.28
2018-07-03T10:06:30.041Z,38.77
2018-07-03T10:07:30.041Z,38.87
2018-07-03T10:08:30.045Z,36.55
2018-07-03T10:09:30.032Z,35.57
2018-07-03T10:10:30.028Z,34.17
2018-07-03T10:11:30.023Z,32.21
2018-07-03T10:12:30.022Z,32.31
2018-07-03T10:13:30.012Z,33.48
2018-07-03T10:14:30.011Z,35.53
2018-07-03T10:15:30.010Z,32.89
2018-07-03T10:16:30.033Z,37.39
2018-07-03T10:17:30.028Z,36.32
2018-07-03T10:18:29.999Z,35.46
2018-07-03T10:19:29.997Z,32.82
2018-07-03T10:20:30.016Z,33.41
2018-07-03T10:21:29.990Z,34.68
2018-07-03T10:22:29.990Z,32.26
2018-07-03T10:23:29.986Z,34.40
2018-07-03T10:24:29.990Z,31.48
2018-07-03T10:25:29.988Z,33.54
2018-07-03T10:26:29.973Z,32.47
2018-07-03T10:27:29.972Z,32.84
2018-07-03T10:28:29.970Z,33.25
2018-07-03T10:29:29.970Z,34.81
2018-07-03T10:30:29.970Z,35.30
2018-07-03T10:31:29.973Z,35.38
2018-07-03T10:32:29.961Z,35.86
2018-07-03T10:33:29.965Z,38.71
2018-07-03T10:34:29.964Z,35.78
2018-07-03T10:35:29.960Z,43.80
2018-07-03T10:36:29.958Z,39.41
2018-07-03T10:37:29.955Z,35.82
2018-07-03T10:38:29.966Z,36.11
2018-07-03T10:39:29.970Z,34.65
2018-07-03T10:40:29.955Z,32.89
2018-07-03T10:41:29.958Z,36.80
2018-07-03T10:42:29.951Z,38.45
2018-07-03T10:43:29.954Z,39.62
2018-07-03T10:44:29.958Z,36.70
2018-07-03T10:45:29.957Z,33.59
2018-07-03T10:46:29.963Z,38.09
2018-07-03T10:47:29.954Z,33.59
2018-07-03T10:48:29.960Z,34.73
2018-07-03T10:49:29.961Z,32.87
2018-07-03T10:50:29.958Z,32.08
2018-07-03T10:51:29.964Z,32.26
2018-07-03T10:52:29.961Z,32.16
2018-07-03T10:53:29.967Z,33.82
2018-07-03T10:54:29.964Z,33.62
2018-07-03T10:55:29.974Z,31.56
2018-07-03T10:56:29.971Z,32.34
2018-07-03T10:57:29.967Z,34.48
2018-07-03T10:58:29.989Z,31.56
2018-07-03T10:59:30.053Z,32.42
2018-07-03T11:00:29.980Z,32.71
2018-07-03T11:01:29.977Z,34.88
2018-07-03T11:02:29.983Z,34.21
2018-07-03T11:03:29.986Z,34.99
2018-07-03T11:04:29.980Z,35.80
2018-07-03T11:05:29.986Z,39.61
2018-07-03T11:06:29.993Z,41.97
2018-07-03T11:07:29.990Z,39.94
2018-07-03T11:08:29.991Z,35.64
2018-07-03T11:09:30.011Z,37.99
2018-07-03T11:10:30.007Z,40.84
2018-07-03T11:11:30.009Z,40.06
2018-07-03T11:12:30.007Z,36.94
2018-07-03T11:13:30.026Z,34.41
2018-07-03T11:14:30.013Z,32.24
2018-07-03T11:15:30.020Z,33.12
2018-07-03T11:16:30.036Z,33.61
2018-07-03T11:17:30.032Z,32.24
2018-07-03T11:18:30.042Z,30.18
2018-07-03T11:19:30.037Z,31.26
2018-07-03T11:20:30.048Z,34.31
2018-07-03T11:21:30.058Z,30.88
2018-07-03T11:22:30.061Z,35.48
2018-07-03T11:23:30.067Z,34.41
2018-07-03T11:24:30.058Z,34.03
2018-07-03T11:25:30.068Z,33.14
2018-07-03T11:26:30.086Z,28.74
2018-07-03T11:27:30.086Z,31.59
2018-07-03T11:28:30.083Z,29.44
2018-07-03T11:29:30.087Z,31.10
2018-07-03T11:30:30.090Z,33.84
2018-07-03T11:31:30.096Z,28.44
2018-07-03T11:32:30.102Z,31.48
2018-07-03T11:33:30.115Z,29.71
2018-07-03T11:34:30.118Z,28.34
2018-07-03T11:35:30.136Z,28.74
2018-07-03T11:36:30.123Z,31.08
2018-07-03T11:37:30.136Z,29.11
2018-07-03T11:38:30.155Z,29.99
2018-07-03T11:39:30.152Z,32.26
2018-07-03T11:40:30.178Z,29.03
2018-07-03T11:41:30.161Z,31.10
2018-07-03T11:42:30.168Z,27.20
2018-07-03T11:43:30.174Z,34.45
2018-07-03T11:44:30.185Z,33.28
2018-07-03T11:45:30.187Z,34.67
2018-07-03T11:46:30.208Z,36.35
2018-07-03T11:47:30.203Z,29.79
2018-07-03T11:48:30.253Z,31.04
2018-07-03T11:49:30.225Z,29.18
2018-07-03T11:50:30.229Z,28.40
2018-07-03T11:51:30.235Z,26.05
2018-07-03T11:52:30.241Z,26.05
2018-07-03T11:53:30.310Z,26.15
2018-07-03T11:54:30.258Z,24.19
2018-07-03T11:55:30.265Z,25.17
2018-07-03T11:56:30.274Z,28.30
2018-07-03T11:57:30.279Z,25.74
2018-07-03T11:58:30.296Z,28.08
2018-07-03T11:59:30.308Z,32.40
2018-07-03T12:00:30.305Z,27.31
2018-07-03T12:01:30.397Z,24.76
2018-07-03T12:02:30.327Z,31.42
2018-07-03T12:03:30.338Z,27.21
2018-07-03T12:04:30.345Z,26.42
2018-07-03T12:05:30.345Z,29.06
2018-07-03T12:06:30.358Z,28.57
2018-07-03T12:07:30.364Z,28.39
2018-07-03T12:08:30.373Z,25.16
2018-07-03T12:09:30.380Z,27.92
2018-07-03T12:10:30.386Z,32.54
2018-07-03T12:11:30.402Z,31.29
2018-07-03T12:12:30.412Z,27.53
2018-07-03T12:13:30.431Z,26.83
2018-07-03T12:14:30.424Z,31.44
2018-07-03T12:15:30.433Z,31.14
2018-07-03T12:16:30.434Z,28.41
2018-07-03T12:17:30.447Z,32.35
2018-07-03T12:18:30.456Z,29.80
2018-07-03T12:19:30.470Z,26.56
2018-07-03T12:20:30.489Z,26.38
2018-07-03T12:21:30.485Z,30.81
2018-07-03T12:22:30.489Z,30.93
2018-07-03T12:23:30.504Z,29.14
2018-07-03T12:24:30.502Z,29.73
2018-07-03T12:25:30.518Z,31.10
2018-07-03T12:26:30.543Z,27.57
2018-07-03T12:27:30.530Z,27.97
2018-07-03T12:28:30.537Z,27.47
2018-07-03T12:29:30.547Z,25.32
2018-07-03T12:30:30.562Z,25.82
2018-07-03T12:31:30.566Z,24.53
2018-07-03T12:32:30.572Z,23.85
2018-07-03T12:33:30.578Z,24.65
2018-07-03T12:34:30.591Z,28.69
2018-07-03T12:35:30.598Z,26.03
2018-07-03T12:36:30.613Z,24.93
2018-07-03T12:37:30.617Z,24.92
2018-07-03T12:38:30.634Z,28.85
2018-07-03T12:39:30.636Z,33.85
2018-07-03T12:40:30.645Z,30.42
2018-07-03T12:41:30.662Z,27.37
2018-07-03T12:42:30.672Z,26.68
2018-07-03T12:43:30.682Z,26.86
2018-07-03T12:44:30.688Z,27.04
2018-07-03T12:45:30.690Z,31.65
2018-07-03T12:46:30.703Z,26.56
2018-07-03T12:47:30.711Z,30.10
2018-07-03T12:48:30.716Z,27.35
2018-07-03T12:49:30.732Z,30.11
2018-07-03T12:50:30.736Z,26.79
2018-07-03T12:51:30.742Z,28.75
2018-07-03T12:52:30.758Z,23.61